Amboy, Indiana
Current Conditions -  °F | °C
As of 1:55 AM on Monday 22 Dec 2014 (Local Time) from KOKK Reporting Station
Clear Clear  
Wind Chill: 20°   Ceiling: Unl
Heat Index: 27°   Visibility: 5mi
Dew Point: 23°   Wind: 6mph
Humidity: 86%   Direction: 130°SE
Pressure: 30.05"   Gusts: NA
Location:  40.6°N, 85.93°W
Report Text: KOKK 220655Z AUTO 13005KT 5SM CLR M03/M05 A3005 RMK AO1
Loading
Personal Weather Stations






























Interactive Weather Map New forecast layout! Learn more

10-Day Weather Forecast

Advertisements
Track Severe Weather on mobile